首页
METAR-TAF:

METAR-TAF

机场 :

石油平台 Norsk Hydro

Oseberg, 挪威

纬度: 60-29-29N, 经度: 2-49-32E, 海拔: 158米

当前天气观测

该预报发布于13分钟前的00:20 UTC
风速9节,风向西转西北
温度 6°C
湿度 61%
气压 1010 hPa
能见度10公里或以上
少量云层高于3000英尺
散云层高于4000英尺
多云层高于9000英尺

METAR: ENOA 080020Z 30009KT 9999 FEW030 SCT040 BKN090 06/M01 Q1010 W///S3

时间: 02:33 (00:33 UTC)

预报

预报有效从08日的 00点(UTC)到 08日的 24点(UTC)
风速8节,风向西转西北
能见度10公里或以上
少量云层高于2500英尺, 塔状积云.
散云层高于4000英尺
几率 30% :
短暂存在
从 08日的 00点(UTC)到 08日的 03点(UTC)
多云层高于2000英尺, 积雨云.
阵雨, 小冰雹或雪球
短暂存在
从 08日的 06点(UTC)到 08日的 18点(UTC)
多云层高于1400英尺, 积雨云.
阵雨
成为
从 08日的 10点(UTC)到 08日的 12点(UTC)
风速10节,风向东南
成为
从 08日的 19点(UTC)到 08日的 21点(UTC)
风速20节,风向东转东南

TAF: ENOA 0800/0824 30008KT 9999 FEW025TCU SCT040 PROB30 TEMPO 0800/0803 SHRAGS BKN020CB TEMPO 0806/0818 SHRA BKN014CB BECMG 0810/0812 13010KT BECMG 0819/0821 12020KT

超过4000个机场的气象观测和天气预报(METAR&TAF报告)。

可查询的气象台以黄色和红色小点在地图上表示。

将鼠标移到小点上方,可查看气象台名称。

然后点击查看天气观测和预报。

如需切换地图:点击带黑十字的绿色按钮放大地图;点击带横线的绿色按钮缩小地图;或者点击绿色箭头查看邻近地区的地图。


METAR-TAF: